Date,TemperatureHighF,TemperatureAvgF,TemperatureLowF,DewpointHighF,DewpointAvgF,DewpointLowF,HumidityHigh,HumidityAvg,HumidityLow,PressureMaxIn,PressureMinIn,WindSpeedMaxMPH,WindSpeedAvgMPH,GustSpeedMaxMPH,PrecipitationSumIn
2013-1-1,67.3,54.0,45.1,65.8,50.6,39.0,96,88,79,30.14,29.84,10,5,19,0.25
2013-1-2,45.1,42.9,42.2,39.3,36.1,33.6,85,77,71,30.25,30.13,9,5,17,0.01
2013-1-3,53.6,45.7,38.5,35.0,32.5,28.9,75,61,39,30.36,30.24,9,5,16,0.01
2013-1-4,49.2,47.4,44.2,37.0,35.0,30.8,70,62,52,30.44,30.30,8,4,14,0.00
2013-1-5,47.1,45.6,42.6,45.2,42.3,35.7,94,89,66,30.32,30.19,5,1,11,0.40
2013-1-6,58.7,48.5,39.8,45.1,40.7,36.0,95,77,46,30.31,30.19,10,3,14,0.01
2013-1-7,58.9,47.6,35.2,45.8,40.5,32.8,93,78,60,30.26,30.04,6,2,13,0.00
2013-1-8,62.9,57.5,50.8,61.7,55.2,44.2,96,92,73,30.04,29.82,13,3,24,0.42
2013-1-9,66.6,63.8,60.9,64.2,62.2,59.8,96,94,88,30.00,29.80,11,4,20,2.04
2013-1-10,68.3,59.7,51.4,60.2,52.1,45.3,96,78,46,30.05,29.93,6,1,13,0.04
2013-1-11,66.8,59.2,47.4,65.6,57.0,44.6,96,92,86,30.00,29.82,5,1,10,0.01
2013-1-12,74.4,72.2,66.9,70.4,69.0,65.7,97,90,82,29.83,29.64,12,6,22,0.18
2013-1-13,71.3,47.7,41.2,69.0,41.2,35.5,93,79,62,30.08,29.72,15,9,26,0.16
2013-1-14,45.8,44.7,43.5,37.7,36.0,35.3,80,72,68,30.07,30.02,11,7,19,0.02
2013-1-15,43.5,39.1,36.9,38.2,35.6,32.3,93,87,79,30.12,29.99,12,5,20,0.09
2013-1-16,52.6,42.0,35.6,32.9,28.2,18.5,84,62,28,30.26,30.10,12,8,20,0.00
2013-1-18,63.1,61.1,58.0,36.9,35.1,31.4,45,38,33,30.47,30.33,7,4,12,0.00
2013-1-22,64.3,56.6,49.2,50.7,49.4,47.5,94,78,62,30.27,30.24,2,1,5,0.00
2013-1-24,61.6,61.5,61.5,59.8,59.6,59.5,94,93,93,30.11,30.11,2,2,5,0.01
2013-1-25,62.3,60.7,58.9,61.4,59.5,57.8,97,96,94,30.11,30.07,4,1,10,0.00
2013-1-28,73.2,72.5,71.8,67.6,66.4,65.6,86,81,77,29.93,29.89,11,9,20,0.00
2013-1-29,76.8,71.7,59.2,68.2,65.6,54.8,87,81,66,29.90,29.55,16,9,25,0.08
2013-1-30,59.8,57.7,51.7,54.7,32.1,22.9,84,40,27,30.09,29.71,21,9,33,0.00
2013-2-3,60.4,59.0,58.1,43.1,42.3,41.1,57,54,49,30.27,30.26,5,4,11,0.00
2013-2-6,62.6,62.5,62.3,58.4,58.2,57.7,86,86,85,29.86,29.85,5,5,11,0.39
2013-2-8,67.8,67.7,67.6,51.3,51.2,51.0,56,56,55,30.11,30.11,5,4,8,0.00
2013-2-12,55.1,55.0,54.8,53.6,53.0,52.7,95,93,92,29.90,29.82,6,3,11,0.00
2013-2-13,61.8,52.7,43.6,45.9,39.4,35.6,80,62,42,30.08,29.95,14,6,31,0.00
2013-2-14,43.5,41.1,39.3,37.9,36.7,35.8,87,84,80,30.06,30.05,0,0,0,0.00
2013-2-15,69.1,58.0,49.6,41.0,38.4,34.5,64,49,31,30.28,30.08,12,8,22,0.00
2013-2-16,49.6,48.7,47.0,33.6,30.7,29.0,54,50,47,30.30,30.28,9,6,16,0.00
2013-2-18,60.9,6.4,60.1,51.8,-84.0,-99.9,74,8,69,30.00,-32.77,17,-892,17,0.33
2013-2-19,65.8,57.8,55.9,49.5,39.8,-99.9,79,54,32,30.11,-32.77,8,-8,17,0.00
2013-2-20,60.4,59.2,56.7,55.4,50.6,46.6,88,74,64,30.00,29.85,12,8,25,0.02
2013-2-23,48.5,48.5,48.5,42.6,42.6,42.6,80,80,80,29.89,29.89,0,0,0,0.00
2013-2-24,48.5,48.3,48.2,43.6,42.9,42.6,83,81,80,29.89,29.87,0,0,0,0.00
2013-2-25,69.4,55.4,48.0,31.9,29.1,25.3,53,38,20,29.74,29.51,19,12,37,0.03
2013-2-26,48.0,45.6,43.1,33.0,32.2,31.1,63,59,54,29.81,29.74,13,8,19,0.00
2013-2-27,60.7,53.0,49.1,32.9,29.8,26.5,48,41,35,30.12,30.02,10,4,12,0.00
2013-2-28,59.3,50.9,41.3,32.4,29.1,25.3,67,44,31,30.24,30.11,12,5,18,0.00
2013-3-1,66.1,52.1,35.5,34.3,29.0,20.9,81,46,18,30.25,30.09,10,3,18,0.00
2013-3-2,58.0,48.2,38.9,33.2,26.8,18.3,70,46,24,30.33,30.20,17,6,29,0.00
2013-3-3,69.8,52.2,33.7,48.3,35.0,25.3,82,57,27,30.24,29.95,9,4,17,0.00
2013-3-4,77.4,65.8,54.5,60.7,55.5,48.3,88,71,45,29.95,29.73,15,8,28,0.00
2013-3-5,69.6,64.6,55.3,61.1,49.2,31.6,84,61,25,30.14,29.75,16,11,29,0.00
2013-3-8,71.6,65.7,61.6,58.3,56.8,55.8,86,74,61,30.09,30.02,11,7,20,0.00
2013-3-9,76.1,68.2,61.8,63.1,60.8,57.6,90,78,61,30.02,29.73,15,7,25,0.00
2013-3-10,69.6,62.5,53.3,65.2,51.7,36.4,93,70,39,30.02,29.67,13,7,30,0.38
2013-3-11,53.2,49.1,45.8,37.0,35.2,34.2,66,59,53,30.05,29.97,8,3,19,0.00
2013-3-16,79.8,72.7,64.0,60.8,58.4,54.8,84,62,45,29.92,29.79,11,7,25,0.00
2013-3-17,81.8,70.7,62.4,65.2,62.3,58.9,94,76,51,29.82,29.63,11,4,21,0.00
2013-3-18,90.5,76.5,67.6,66.7,62.5,55.8,92,66,33,29.83,29.65,8,2,18,0.00
2013-3-19,75.1,67.9,63.9,56.7,54.5,48.8,73,63,46,29.92,29.84,10,4,17,0.00
2013-3-20,75.8,64.1,55.6,58.8,47.1,33.9,92,60,23,30.13,29.97,11,4,20,0.28
2013-3-21,73.7,62.8,53.1,60.9,53.9,47.9,91,74,45,30.00,29.66,14,4,22,0.00
2013-3-22,80.3,72.8,65.6,68.1,65.2,60.6,92,78,63,29.67,29.61,7,2,14,0.00
2013-3-25,62.6,57.5,48.9,26.4,22.1,18.6,41,26,19,30.32,30.18,9,4,20,0.00
2013-4-16,81.6,77.8,74.2,71.5,70.1,68.2,90,78,64,29.88,29.80,11,7,20,0.01
2013-4-17,76.7,74.3,72.5,72.3,70.9,69.7,93,89,85,29.87,29.69,11,6,20,0.01
2013-4-18,76.3,65.2,53.8,70.8,59.3,42.8,91,81,66,29.99,29.64,16,8,27,0.06
2013-4-19,68.3,56.0,47.1,42.8,33.6,25.8,66,46,22,30.19,29.99,14,6,24,0.00
2013-4-20,70.9,55.7,39.1,46.6,40.0,31.9,88,59,31,30.19,30.03,9,3,14,0.00
2013-4-21,75.4,63.5,52.2,56.3,52.1,46.6,85,68,48,30.11,29.99,8,2,13,0.01
2013-4-22,83.0,66.9,52.9,61.9,56.7,50.3,94,73,42,30.07,29.88,9,2,13,0.00
2013-4-23,81.2,71.1,62.3,67.2,63.3,54.7,94,78,57,29.94,29.81,12,3,16,0.01
2013-4-24,72.7,59.9,47.7,54.8,45.8,41.6,90,62,37,30.15,29.94,14,6,21,0.11
2013-4-25,75.4,65.1,58.7,57.9,46.9,38.9,74,53,29,30.25,30.12,8,3,16,0.00
2013-4-26,81.8,72.9,66.1,67.8,65.0,58.1,91,77,59,30.15,30.01,11,5,17,0.00
2013-4-27,77.4,69.8,63.9,70.5,66.4,62.4,96,89,75,30.06,29.92,17,3,22,2.23
2013-4-28,80.1,71.0,62.7,65.4,63.0,59.6,95,78,55,30.00,29.83,15,2,21,0.18
2013-4-29,82.6,71.0,65.5,69.1,65.7,62.8,96,85,52,29.89,29.77,7,1,12,0.05
2013-4-30,83.4,73.1,65.3,68.9,65.7,62.9,96,79,56,29.78,29.67,8,1,13,0.09
2013-5-1,84.9,70.6,67.1,68.0,55.6,-99.9,94,70,52,29.84,29.74,8,-58,11,0.00
2013-5-2,76.3,65.4,49.6,68.5,57.1,39.8,94,75,58,30.15,29.83,17,7,29,0.00
2013-5-3,66.9,55.4,46.8,40.4,33.6,25.2,72,48,21,30.16,30.01,16,9,28,0.00
2013-5-4,81.4,63.4,43.1,51.1,41.4,36.8,87,51,22,30.05,29.81,9,2,19,0.00
2013-5-5,72.3,62.9,54.4,51.3,44.7,40.6,74,53,35,30.05,29.91,12,4,20,0.00
2013-5-6,77.4,59.2,48.5,58.8,37.4,-99.9,89,57,37,30.07,29.92,8,-81,10,0.00
2013-5-7,87.2,58.4,55.9,58.0,21.8,-99.9,90,44,32,30.02,29.90,8,-205,8,0.00
2013-5-8,82.8,55.2,60.7,64.1,23.6,-99.9,90,54,43,30.01,29.90,14,-229,17,0.00
2013-5-11,81.8,75.9,70.8,59.0,55.3,52.6,55,49,46,30.04,29.93,7,3,11,0.00
2013-5-12,82.6,73.2,64.0,60.6,55.1,49.8,76,55,33,30.12,30.01,6,1,12,0.00
2013-5-13,83.0,70.9,56.7,60.0,56.7,53.5,92,63,39,30.23,30.11,8,2,12,0.00
2013-5-14,81.6,70.5,59.6,68.6,62.5,56.6,96,77,55,30.17,30.04,8,3,14,0.00
2013-5-15,79.9,71.8,67.3,70.0,66.8,64.4,93,85,67,30.08,29.86,10,5,17,0.06
2013-5-16,83.2,75.6,69.3,70.8,68.7,66.5,92,80,62,29.90,29.75,11,5,18,0.00
2013-5-17,86.7,78.0,71.8,73.0,70.4,66.9,92,78,62,29.88,29.78,11,4,14,0.00
2013-5-18,89.0,79.6,74.0,72.2,69.9,65.8,91,74,47,29.89,29.83,10,5,18,0.00
2013-5-19,87.6,79.6,74.4,71.1,69.7,67.2,87,73,52,29.84,29.74,11,6,19,0.00
2013-5-20,87.0,80.4,76.3,72.8,71.5,70.0,85,75,58,29.83,29.71,11,6,19,0.00
2013-5-21,86.7,80.3,76.1,73.2,71.8,69.8,87,76,59,29.81,29.66,12,5,18,0.00
2013-5-22,91.4,80.7,74.0,74.3,72.2,67.6,89,76,55,29.86,29.73,10,2,16,0.03
2013-5-23,87.6,79.9,73.7,74.1,72.3,70.3,94,79,59,29.99,29.84,11,4,13,0.01
2013-5-24,87.8,79.7,75.3,74.7,72.2,69.4,93,79,57,30.06,29.95,11,4,17,0.00
2013-5-25,83.0,77.7,73.9,73.4,71.5,69.8,93,82,65,30.09,29.99,8,3,14,0.00
2013-5-26,87.6,79.5,74.0,73.6,69.8,63.7,93,74,47,30.05,29.94,8,3,16,0.00
2013-5-27,87.2,79.0,72.3,71.6,69.8,66.1,92,75,57,29.99,29.86,11,5,18,0.00
2013-5-28,85.7,78.6,73.7,74.1,70.3,66.2,89,76,57,29.90,29.80,11,6,18,0.03
2013-5-29,84.3,78.9,74.9,72.9,71.5,70.2,87,79,65,29.83,29.74,16,6,19,0.00
2013-5-30,86.3,80.6,75.4,74.8,73.0,71.4,89,78,64,29.81,29.74,11,6,21,0.01
2013-5-31,90.3,82.6,76.8,75.7,73.5,69.6,92,76,53,29.84,29.76,9,5,19,0.00
2013-6-1,91.6,83.1,77.0,75.4,73.3,70.9,91,74,52,29.84,29.77,9,4,16,0.00
2013-6-2,84.7,76.1,69.6,74.4,70.2,66.7,95,83,60,29.99,29.82,10,2,18,0.30
2013-6-3,93.4,79.9,67.6,70.5,65.1,58.2,94,65,31,29.91,29.76,6,1,11,0.00
2013-6-4,91.6,80.4,69.9,72.2,68.2,64.7,92,69,43,29.86,29.75,7,2,12,0.00
2013-6-5,93.4,82.1,72.0,75.8,71.0,67.1,95,72,44,29.84,29.69,7,2,13,0.00
2013-6-6,96.8,83.8,74.4,74.9,71.0,65.3,92,68,38,29.83,29.66,9,2,18,0.00
2013-6-7,88.4,78.7,69.4,68.3,64.4,55.9,90,64,37,29.89,29.79,7,2,12,0.00
2013-6-8,88.6,78.9,70.6,77.9,67.6,58.7,88,69,52,29.87,29.75,11,2,17,0.47
2013-6-9,88.6,75.7,70.4,76.0,71.0,63.8,94,86,62,29.93,29.79,11,1,19,1.26
2013-6-10,92.3,80.2,69.8,75.2,71.5,67.8,95,77,49,29.93,29.87,11,2,17,0.01
2013-6-11,90.3,82.0,74.2,77.9,73.9,70.9,94,78,58,29.98,29.91,8,2,13,0.03
2013-6-12,91.0,81.6,75.8,79.6,74.2,68.5,93,79,58,30.00,29.91,6,1,13,0.13
2013-6-13,96.1,84.1,75.4,76.9,73.1,67.2,93,72,45,30.01,29.85,6,1,10,0.00
2013-6-14,96.3,84.9,75.6,78.0,72.8,65.9,93,70,38,29.92,29.81,5,1,10,0.00
2013-6-15,95.1,83.5,76.7,76.6,73.1,68.9,90,73,48,29.94,29.83,5,1,8,0.00
2013-6-16,96.6,84.3,74.6,75.9,72.4,67.5,93,70,41,29.96,29.86,4,1,13,0.00
2013-6-17,93.8,84.2,74.7,75.9,72.8,68.2,93,71,45,29.94,29.81,6,1,11,0.00
2013-6-18,95.6,83.3,74.9,78.2,73.0,67.3,93,73,45,29.93,29.81,8,1,11,0.06
2013-6-19,97.1,84.5,74.9,75.6,71.2,63.0,91,67,36,29.93,29.84,5,1,12,0.00
2013-6-20,93.6,84.2,76.5,76.2,72.2,67.3,91,69,46,30.01,29.90,9,3,14,0.00
2013-6-21,93.4,83.9,74.9,76.1,71.5,66.7,93,69,43,30.03,29.94,7,2,11,0.00
2013-6-22,94.3,83.6,74.9,76.5,71.1,65.3,92,69,39,30.00,29.88,10,2,13,0.00
2013-6-23,90.7,82.6,75.4,76.9,71.8,67.5,91,71,51,29.96,29.87,8,2,19,0.07
2013-6-24,93.6,84.2,76.0,75.2,71.6,66.0,89,68,41,30.00,29.90,9,3,18,0.00
2013-6-25,94.7,84.7,77.2,76.6,71.9,64.0,89,68,38,29.97,29.87,8,3,14,0.00
2013-6-26,96.3,85.0,76.1,75.8,71.3,65.2,89,67,37,29.94,29.84,8,2,13,0.00
2013-6-27,99.9,85.7,75.1,75.8,70.5,61.4,92,65,32,29.98,29.84,5,1,10,0.00
2013-6-28,101.2,86.7,74.9,75.9,69.2,58.5,92,62,25,29.93,29.74,6,1,13,0.00
2013-6-29,104.9,90.1,76.3,74.9,69.4,59.0,89,57,23,29.80,29.64,8,2,13,0.00
2013-6-30,98.0,88.5,78.5,73.8,63.5,55.8,81,47,26,29.81,29.70,8,2,16,0.00
2013-7-1,92.1,83.8,73.2,62.7,57.1,52.3,62,42,28,29.89,29.78,7,2,11,0.00
2013-7-2,95.4,82.7,70.1,64.1,58.8,50.3,71,48,24,29.95,29.85,8,2,12,0.00
2013-7-3,96.1,82.2,71.5,68.0,61.7,51.9,81,53,24,29.96,29.83,9,1,11,0.00
2013-7-4,95.4,82.8,70.6,69.6,64.8,58.4,83,57,30,29.93,29.83,9,1,14,0.00
2013-7-5,95.1,83.9,71.5,71.9,66.5,55.8,88,59,28,29.92,29.79,8,2,13,0.00
2013-7-6,94.0,83.8,75.4,73.8,70.5,63.6,88,67,38,29.87,29.78,10,3,17,0.00
2013-7-7,89.3,82.2,76.5,75.7,72.6,69.1,90,74,52,29.94,29.84,12,3,18,0.00
2013-7-8,88.8,80.1,75.8,75.2,72.8,68.7,91,79,58,30.10,29.94,7,2,14,0.08
2013-7-9,95.1,84.3,75.1,77.2,72.8,69.0,94,71,44,30.09,29.97,10,2,19,0.01
2013-7-10,94.5,84.7,75.8,77.2,72.1,67.2,92,68,43,30.04,29.89,8,2,19,0.00
2013-7-11,98.5,85.4,74.9,75.8,70.4,62.5,92,65,33,29.95,29.83,6,1,11,0.00
2013-7-12,97.1,85.3,77.0,75.4,71.6,66.2,88,66,38,29.91,29.81,7,2,13,0.00
2013-7-13,100.2,86.3,74.2,74.6,69.4,62.0,90,61,30,29.92,29.77,6,1,14,0.00
2013-7-14,91.4,83.1,73.7,73.7,70.8,65.6,93,68,46,29.88,29.78,8,2,13,0.11
2013-7-15,86.1,77.5,73.0,74.7,72.0,68.5,94,84,63,29.97,29.84,7,1,13,0.03
2013-7-16,87.2,78.9,74.6,75.9,72.0,66.7,90,80,60,30.05,29.95,10,2,21,0.04
2013-7-17,83.2,77.4,73.7,75.4,73.1,70.9,95,87,72,30.12,30.03,6,1,10,0.17
2013-7-18,93.2,82.9,73.7,74.8,68.9,57.9,94,67,33,30.08,29.93,8,2,16,0.01
2013-7-19,94.0,80.4,73.9,78.2,71.5,63.2,92,77,38,30.00,29.87,9,1,16,0.02
2013-7-20,90.7,79.8,76.3,77.1,73.4,68.2,90,81,55,29.92,29.81,11,1,17,0.14
2013-7-21,86.7,79.6,74.2,77.2,73.7,70.3,94,83,62,29.94,29.85,10,2,16,0.27
2013-7-22,93.4,84.4,77.2,77.6,74.3,70.3,94,74,48,29.96,29.88,10,3,19,0.00
2013-7-23,95.6,84.3,76.3,77.7,72.8,64.7,94,72,37,29.97,29.86,7,2,11,0.00
2013-7-24,98.0,84.8,74.2,75.0,72.1,65.0,93,69,36,29.95,29.81,5,1,14,0.00
2013-7-25,99.4,85.7,75.3,75.3,71.3,61.6,91,66,31,29.97,29.89,9,2,13,0.00
2013-7-26,95.1,84.4,76.0,78.3,73.2,67.9,94,72,43,29.98,29.84,6,1,13,0.00
2013-7-27,96.1,84.7,78.3,78.0,74.4,68.4,93,74,41,29.90,29.78,8,2,14,0.80
2013-7-28,90.5,82.4,77.0,78.5,74.7,69.0,94,79,52,29.91,29.83,6,1,17,0.52
2013-7-29,94.5,84.5,77.2,76.1,71.4,57.6,92,68,31,30.02,29.90,10,3,18,0.00
2013-7-30,95.1,84.1,74.9,76.0,71.1,57.8,92,69,31,30.06,29.95,10,3,20,0.00
2013-7-31,101.0,85.2,73.9,76.3,71.2,64.3,93,67,31,30.04,29.87,8,1,17,0.00
2013-8-1,99.2,85.8,76.0,76.7,71.7,65.6,93,67,35,29.98,29.83,7,2,11,0.00
2013-8-2,97.1,85.6,76.1,76.9,72.4,65.3,92,68,38,29.93,29.83,10,2,19,0.00
2013-8-3,97.8,85.7,75.1,76.1,72.7,67.3,93,68,38,29.98,29.88,10,2,17,0.00
2013-8-4,95.9,85.6,77.7,79.2,74.5,66.8,92,71,46,30.02,29.90,11,2,18,0.11
2013-8-5,98.5,85.7,75.8,77.0,72.3,65.7,93,68,35,29.99,29.86,7,2,14,0.00
2013-8-6,97.3,85.5,76.3,79.0,73.2,67.7,94,70,40,29.92,29.81,8,2,19,0.00
2013-8-7,98.7,86.0,76.5,77.4,71.8,59.5,93,67,28,29.89,29.77,8,2,13,0.00
2013-8-8,99.2,85.4,74.9,76.9,71.4,61.2,93,67,29,29.88,29.76,10,2,17,0.00
2013-8-9,98.0,85.7,74.4,76.6,72.5,67.4,93,68,38,29.90,29.80,8,2,13,0.00
2013-8-10,92.9,84.6,78.6,79.0,74.3,69.5,91,73,48,29.98,29.89,8,2,12,0.00
2013-8-11,93.2,84.5,78.1,78.0,72.8,66.6,90,69,44,30.00,29.93,11,2,16,0.00
2013-8-12,96.3,85.0,75.6,77.2,73.1,69.1,92,70,43,30.01,29.90,8,1,17,0.00
2013-8-13,101.7,87.7,77.4,77.5,71.3,60.4,92,64,28,29.98,29.82,6,1,16,0.00
2013-8-14,99.4,84.3,74.7,77.3,72.1,60.5,92,72,29,29.93,29.79,13,2,24,0.29
2013-8-15,91.4,80.1,74.0,73.8,70.1,62.9,93,74,41,29.96,29.84,4,1,10,0.01
2013-8-16,97.3,82.3,70.8,74.3,70.3,64.6,92,71,35,29.94,29.80,10,1,20,0.20
2013-8-17,94.0,81.8,71.5,70.5,64.7,54.7,92,61,30,29.95,29.83,8,2,13,0.00
2013-8-18,92.5,82.3,70.9,70.0,64.9,56.7,83,59,31,29.97,29.89,7,2,14,0.00
2013-8-19,94.0,82.3,71.5,72.3,66.4,56.4,90,63,30,29.99,29.86,9,2,14,0.00
2013-8-20,87.2,79.2,73.2,74.0,70.6,69.3,91,76,57,29.98,29.90,10,1,18,0.00
2013-8-21,94.0,82.4,73.5,75.4,71.4,65.9,92,72,41,30.01,29.92,13,2,16,0.00
2013-8-22,92.7,83.9,76.1,77.7,73.4,69.1,92,72,48,30.00,29.87,8,2,12,0.00
2013-8-23,96.1,85.1,74.7,75.5,71.4,65.9,91,67,38,29.95,29.81,9,2,12,0.00
2013-8-24,96.1,85.7,77.4,75.7,71.1,63.9,86,64,36,29.96,29.87,9,2,12,0.00
2013-8-25,86.3,80.9,77.9,77.0,72.8,69.4,88,77,62,30.01,29.93,9,3,18,0.05
2013-8-26,81.8,76.3,74.0,75.0,72.8,71.2,94,89,72,30.06,29.98,9,2,17,0.33
2013-8-27,92.5,78.7,73.0,76.0,72.6,68.7,95,83,48,30.06,29.97,8,2,13,0.23
2013-8-28,93.4,82.4,72.5,78.6,70.5,66.2,96,71,41,30.04,29.92,6,1,11,0.00
2013-8-29,99.2,85.4,75.1,76.6,71.1,62.6,91,66,34,30.02,29.86,6,1,12,0.00
2013-8-30,97.8,85.1,76.7,77.3,72.9,67.4,91,69,41,29.97,29.83,8,1,13,0.00
2013-8-31,94.7,84.1,74.7,76.5,71.4,67.1,90,68,43,29.89,29.77,6,1,13,0.00
2013-9-1,96.6,84.4,73.3,74.5,71.0,66.2,91,67,38,29.87,29.76,6,1,11,0.00
2013-9-2,99.9,86.0,75.6,77.0,72.0,61.9,92,67,30,29.92,29.78,6,1,10,0.00
2013-9-3,100.4,86.7,75.1,76.0,71.1,62.3,92,64,31,29.93,29.80,4,1,10,0.00
2013-9-4,93.8,85.0,76.7,76.9,71.5,65.8,90,67,41,29.98,29.87,7,2,13,0.00
2013-9-5,94.9,84.5,76.0,75.9,72.1,65.7,90,69,39,30.02,29.92,9,2,17,0.00
2013-9-6,92.3,83.6,76.1,75.1,72.6,68.4,89,71,49,30.01,29.89,8,2,17,0.00
2013-9-7,88.2,80.8,75.6,78.1,72.3,66.0,91,76,56,29.96,29.87,8,2,14,0.11
2013-9-8,90.5,80.4,74.2,75.3,71.3,65.5,93,75,50,29.92,29.83,9,1,16,0.00
2013-9-9,90.7,80.3,72.7,76.1,70.7,64.8,93,74,45,29.92,29.86,11,3,17,0.14
2013-9-10,90.7,81.3,75.8,73.6,71.6,67.6,89,74,49,30.00,29.91,11,3,16,0.01
2013-9-11,93.2,82.3,73.0,74.4,70.2,63.6,93,69,39,30.02,29.92,8,2,14,0.00
2013-9-12,94.0,83.0,74.0,75.6,68.6,60.2,90,65,34,29.97,29.84,8,2,13,0.00
2013-9-13,95.6,83.2,72.1,73.0,67.3,59.0,89,63,31,29.88,29.73,8,2,13,0.00
2013-9-14,92.7,82.8,75.3,75.7,71.2,68.1,88,70,45,29.86,29.77,9,2,18,0.00
2013-9-15,91.2,82.6,75.3,75.8,72.4,69.3,89,73,51,29.93,29.84,9,2,13,0.00
2013-9-16,93.4,82.3,76.8,76.1,73.4,68.2,89,76,46,29.97,29.88,9,2,19,0.00
2013-9-17,92.7,83.2,76.3,76.5,72.7,65.2,92,73,41,29.98,29.86,12,3,18,0.01
2013-9-18,91.8,82.7,75.4,75.8,72.6,68.5,92,73,49,29.94,29.83,9,2,17,0.00
2013-9-19,89.5,81.2,76.1,79.2,74.0,69.7,93,80,61,29.88,29.78,10,3,18,0.28
2013-9-20,83.6,78.1,74.0,80.5,75.4,72.8,96,91,79,29.82,29.66,15,2,20,3.82
2013-9-21,81.6,74.0,70.4,73.0,68.8,65.4,97,85,60,29.78,29.69,8,3,14,0.31
2013-9-22,87.0,76.2,64.5,66.1,59.5,53.1,86,59,33,29.79,29.67,7,2,12,0.00
2013-9-23,88.6,79.5,72.3,71.6,64.4,57.6,81,60,50,29.75,29.66,7,0,8,0.00
2013-9-24,95.4,83.4,75.1,74.7,68.6,57.5,86,64,29,29.80,29.71,6,1,14,0.00
2013-9-25,97.1,81.4,67.6,72.3,63.6,49.6,91,61,22,29.82,29.71,3,0,10,0.00
2013-9-26,91.6,79.9,67.9,72.7,65.3,55.6,93,65,32,29.85,29.76,9,2,14,0.00
2013-9-27,88.2,80.5,72.8,76.4,72.2,67.9,89,77,62,29.88,29.80,10,4,20,0.00
2013-9-28,88.4,81.3,77.0,78.0,75.0,73.2,89,82,67,29.92,29.82,10,5,17,0.01
2013-9-29,85.3,79.3,76.0,77.8,73.8,71.0,95,84,63,29.92,29.83,7,1,12,0.27
2013-9-30,89.3,78.5,73.3,75.0,72.5,70.1,92,83,57,29.85,29.74,7,1,10,0.06
2013-10-1,87.0,78.5,74.4,74.6,72.3,67.9,95,82,64,29.89,29.79,9,2,14,0.01
2013-10-2,83.6,77.2,74.0,76.1,72.8,68.9,95,87,71,29.91,29.83,12,2,18,0.22
2013-10-3,90.1,80.0,72.7,78.2,72.2,68.9,96,79,52,29.89,29.80,7,2,12,0.01
2013-10-4,89.9,80.1,70.6,75.7,71.0,67.6,95,76,50,29.88,29.81,9,2,14,0.00
2013-10-5,94.3,81.8,66.8,76.6,69.9,58.2,96,70,41,29.90,29.78,12,2,21,0.00
2013-10-6,78.8,66.8,55.1,58.6,48.8,40.3,90,56,27,30.06,29.90,12,5,18,0.24
2013-10-7,81.2,66.7,53.2,53.4,45.2,38.3,82,50,22,30.08,29.97,11,2,11,0.00
2013-10-8,84.1,67.4,51.6,58.6,51.3,42.0,92,63,25,30.04,29.92,3,0,6,0.00
2013-10-9,83.4,70.7,56.6,61.6,58.6,54.6,95,69,42,30.02,29.92,5,1,10,0.00
2013-10-10,86.1,73.3,60.9,67.1,62.3,58.6,94,71,43,30.00,29.87,8,2,13,0.00
2013-10-11,85.3,77.0,68.9,74.5,69.6,65.0,90,79,62,29.90,29.81,10,3,14,0.03
2013-10-12,85.9,76.8,72.8,78.4,73.1,69.8,96,89,69,29.98,29.85,8,1,13,0.27
2013-10-13,74.9,73.6,72.0,73.7,71.8,70.3,96,94,91,30.09,29.97,6,1,14,0.43
2013-10-14,84.1,76.6,71.5,74.2,70.2,67.0,96,82,59,30.03,29.90,8,2,16,0.00
2013-10-15,88.2,77.7,70.6,73.3,69.7,67.3,95,78,54,29.92,29.81,5,1,11,0.00
2013-10-16,73.2,66.4,62.0,68.9,63.0,58.4,93,89,79,29.97,29.83,9,4,16,0.06
2013-10-17,78.1,66.8,58.7,58.7,55.6,52.6,91,70,43,30.02,29.91,6,3,11,0.00
2013-10-18,72.8,64.7,58.0,63.3,58.9,54.3,92,82,66,29.94,29.83,8,2,14,0.18
2013-10-19,70.8,62.2,51.3,61.9,51.2,37.7,96,71,31,30.07,29.90,11,4,20,0.67
2013-10-20,75.8,61.4,45.1,59.7,50.5,42.6,93,70,40,30.03,29.88,6,2,8,0.00
2013-10-21,77.6,68.9,61.5,66.3,62.4,57.6,93,81,61,29.93,29.84,10,2,14,0.00
2013-10-22,75.8,66.0,55.3,64.1,56.3,44.6,92,74,34,30.05,29.91,10,4,17,0.00
2013-10-23,84.3,65.0,48.8,56.6,50.2,43.3,95,65,27,30.11,30.02,4,0,7,0.00
2013-10-24,85.1,67.4,52.0,58.0,53.0,46.0,94,66,28,30.17,30.06,3,0,6,0.00
2013-10-25,76.3,64.7,54.5,58.2,55.9,52.5,93,75,51,30.28,30.16,7,2,11,0.00
2013-10-26,80.3,68.2,55.9,66.2,58.5,52.1,88,73,50,30.20,30.03,9,3,17,0.00
2013-10-27,75.3,66.4,60.7,68.0,63.3,57.8,96,90,73,30.06,29.95,17,1,28,1.10
2013-10-28,82.8,71.6,61.3,70.8,65.7,60.1,96,83,61,30.05,29.96,9,3,16,0.01
2013-10-29,83.6,75.0,68.4,70.1,67.6,65.7,92,79,58,30.05,29.97,10,4,19,0.00
2013-10-30,82.8,77.2,73.0,77.5,72.8,69.4,91,86,75,30.00,29.78,9,5,16,0.20
2013-10-31,77.4,70.0,56.3,74.9,66.4,52.9,97,89,45,29.84,29.71,11,3,14,3.05
2013-11-1,79.8,65.4,51.7,63.9,56.3,50.3,97,76,41,29.92,29.77,7,2,12,0.07
2013-11-2,73.2,63.9,54.1,52.5,43.7,35.0,72,50,26,30.17,29.92,13,5,19,0.00
2013-11-3,70.4,57.7,43.9,53.0,47.4,41.2,92,70,46,30.16,30.02,8,3,16,0.00
2013-11-4,68.6,63.9,56.0,66.9,60.4,49.6,95,89,77,30.03,29.93,9,3,17,0.27
2013-11-5,77.7,71.8,67.1,71.9,68.0,64.9,95,88,73,29.98,29.90,9,2,16,0.08
2013-11-6,79.8,68.7,54.5,74.3,63.0,45.3,96,83,63,30.21,29.92,13,4,21,0.01
2013-11-7,66.3,56.3,47.9,45.2,39.7,36.6,73,55,34,30.35,30.20,9,4,19,0.00
2013-11-8,65.3,56.2,47.9,47.7,42.0,32.2,82,62,31,30.30,30.13,10,2,16,0.00
2013-11-9,70.8,61.3,52.0,57.9,52.4,46.2,89,73,58,30.15,30.08,5,1,8,0.00
2013-11-10,73.7,63.2,55.9,56.9,50.2,40.8,89,66,32,30.24,30.13,5,1,10,0.00
2013-11-11,76.1,62.8,51.9,56.2,52.8,49.6,92,73,45,30.20,30.09,4,1,7,0.00
2013-11-12,71.8,58.0,48.9,54.7,50.4,42.7,92,77,52,30.50,30.16,15,5,22,0.00
2013-11-13,55.9,45.7,37.3,41.3,29.0,22.4,84,54,28,30.56,30.35,10,3,17,0.00
2013-11-14,64.0,50.4,38.0,51.3,42.4,33.3,87,75,57,30.35,30.00,8,2,12,0.00
2013-11-15,78.5,66.2,54.5,64.6,58.7,48.8,94,78,54,30.00,29.84,7,2,12,0.00
2013-11-16,81.6,71.8,62.7,72.6,67.9,61.1,97,88,69,29.89,29.74,11,3,17,0.01
2013-11-17,83.6,77.2,71.3,73.6,71.0,68.9,93,82,62,29.88,29.75,7,2,14,0.00
2013-11-18,77.2,72.0,65.3,72.1,62.6,44.5,98,75,41,30.05,29.87,6,2,11,0.00
2013-11-19,69.3,62.1,55.6,50.2,45.7,40.2,80,56,46,30.08,29.97,9,4,14,0.00
2013-11-20,72.7,64.8,55.0,66.6,55.8,43.3,95,73,60,29.97,29.86,10,4,14,0.07
2013-11-21,80.5,74.4,68.1,73.5,70.8,66.6,95,89,75,30.02,29.90,11,6,17,0.06
2013-11-22,73.9,54.3,41.9,71.4,51.8,38.9,95,91,86,30.24,29.99,14,7,28,0.54
2013-11-23,48.8,45.3,41.6,44.6,41.7,38.1,94,87,72,30.32,30.22,14,7,21,0.02
2013-11-24,49.2,45.6,43.2,38.1,32.3,29.0,73,60,46,30.36,30.24,9,5,16,0.01
2013-11-25,43.2,41.1,39.1,41.3,38.5,34.6,95,91,73,30.24,29.92,10,5,18,0.82
2013-11-26,44.2,40.9,38.5,38.4,37.3,34.5,93,87,77,30.23,29.98,14,8,26,0.27
2013-11-27,49.1,40.6,33.8,34.8,28.5,23.2,83,64,37,30.40,30.24,10,4,16,0.00
2013-11-28,55.6,42.8,30.9,42.5,35.8,28.0,92,78,57,30.41,30.31,5,1,8,0.00
2013-11-29,62.3,48.9,37.0,41.2,37.3,30.9,92,67,40,30.44,30.33,5,2,10,0.00
2013-11-30,72.0,55.4,40.3,54.0,47.3,37.6,93,76,52,30.34,30.16,6,2,10,0.00
2013-12-1,71.1,61.3,51.0,60.3,56.5,49.3,96,85,67,30.16,29.90,7,2,13,0.00
2013-12-2,76.1,66.4,60.9,63.3,60.7,59.0,95,83,61,29.89,29.64,10,2,17,0.00
2013-12-3,79.4,68.4,59.6,66.9,62.9,58.2,96,84,61,29.69,29.58,7,3,16,0.01
2013-12-4,79.2,72.7,68.3,70.5,67.7,65.8,94,85,66,29.76,29.65,7,3,13,0.00
2013-12-5,72.7,54.7,37.6,71.5,51.1,34.7,96,88,74,29.98,29.74,12,6,21,0.00
2013-12-6,41.6,37.8,34.3,36.4,34.0,28.8,94,86,79,30.31,29.93,14,8,21,0.04
2013-12-7,35.8,34.4,32.5,33.5,30.4,27.8,93,85,81,30.35,30.22,9,5,16,0.01
2013-12-8,47.0,41.6,35.2,42.7,37.6,33.4,94,86,73,30.21,30.00,6,2,12,0.00
2013-12-9,46.4,44.5,39.1,44.6,42.7,36.1,95,93,89,30.25,30.00,11,4,18,0.07
2013-12-10,47.6,38.8,32.1,36.2,28.9,26.1,90,69,45,30.41,30.25,12,5,20,0.00
2013-12-11,52.3,45.6,35.5,39.1,35.6,29.4,81,68,55,30.45,30.28,6,2,11,0.00
2013-12-12,53.9,45.3,37.6,38.1,34.8,30.4,86,68,41,30.50,30.30,6,2,10,0.00
2013-12-13,58.0,51.2,42.8,56.2,46.4,37.2,95,84,73,30.30,29.80,7,2,13,0.02
2013-12-14,57.2,49.8,39.9,53.6,45.6,31.5,97,86,66,30.24,29.82,19,6,25,0.01
2013-12-15,56.2,42.2,31.5,36.3,31.2,28.4,89,68,38,30.34,30.22,7,3,12,0.00
2013-12-16,64.7,46.4,30.1,40.6,34.1,28.1,94,67,30,30.30,30.18,4,1,7,0.00
2013-12-17,70.3,51.2,34.9,49.5,40.0,32.8,94,70,32,30.29,30.18,5,1,8,0.00
2013-12-18,70.4,54.1,39.5,55.6,47.5,37.7,96,81,52,30.26,30.05,9,2,14,0.00
2013-12-19,76.3,65.6,52.8,65.7,59.9,50.5,93,83,63,30.05,29.82,13,5,22,0.02
2013-12-20,76.1,72.3,68.1,70.1,68.2,65.7,93,87,79,29.85,29.66,13,7,19,0.00
2013-12-21,74.0,66.8,54.7,70.7,63.3,52.7,96,89,76,29.78,29.53,15,5,28,0.53
2013-12-22,58.9,52.2,38.8,55.5,45.5,30.8,97,79,58,30.28,29.74,15,6,21,0.02
2013-12-23,54.1,42.1,33.2,32.5,30.1,27.4,82,64,37,30.47,30.28,10,5,14,0.00
2013-12-24,57.0,43.0,30.7,34.7,30.1,22.0,92,65,26,30.50,30.27,7,2,11,0.00
2013-12-25,58.6,51.1,37.8,48.9,43.7,33.4,87,76,65,30.30,30.21,8,2,12,0.00
2013-12-26,62.3,53.6,48.5,49.6,46.9,42.9,95,79,50,30.35,30.24,7,2,8,0.00
2013-12-27,59.0,52.7,48.6,45.0,40.8,35.7,81,65,47,30.36,30.25,6,2,11,0.00
2013-12-28,59.9,49.8,41.3,38.8,35.2,28.6,78,59,31,30.26,29.99,3,1,6,0.00
2013-12-29,69.3,52.9,37.2,48.5,39.9,32.6,92,66,28,30.12,29.94,11,2,18,0.00
2013-12-30,46.4,41.0,37.9,38.9,32.6,30.1,78,72,66,30.35,30.12,12,7,18,0.00
2013-12-31,49.2,44.4,39.6,38.1,32.9,30.1,73,64,55,30.40,30.22,6,2,12,0.00
2014-1-1,66.0,55.4,46.4,57.5,49.8,38.2,93,82,67,30.22,29.97,8,2,10,0.00
2014-1-2,59.2,46.1,37.3,57.2,31.9,21.2,96,60,33,30.39,30.01,18,8,28,0.01